createdAt,value
2022-12-19T00:01:23.568Z,0.70
2022-12-19T00:03:55.454Z,0.70
2022-12-19T00:06:24.230Z,0.70
2022-12-19T00:08:54.807Z,0.70
2022-12-19T00:11:24.970Z,0.90
2022-12-19T00:13:53.173Z,0.80
2022-12-19T00:16:23.483Z,0.90
2022-12-19T00:18:55.186Z,0.80
2022-12-19T00:21:25.342Z,0.70
2022-12-19T00:23:54.845Z,0.70
2022-12-19T00:26:25.142Z,0.70
2022-12-19T00:28:55.421Z,0.60
2022-12-19T00:31:27.288Z,0.60
2022-12-19T00:33:55.640Z,0.60
2022-12-19T00:36:25.417Z,0.50
2022-12-19T00:38:56.232Z,0.40
2022-12-19T00:41:26.482Z,0.40
2022-12-19T00:43:58.570Z,0.40
2022-12-19T00:46:27.820Z,0.30
2022-12-19T00:48:56.616Z,0.30
2022-12-19T00:51:26.776Z,0.30
2022-12-19T00:53:57.473Z,0.20
2022-12-19T00:56:28.700Z,0.20
2022-12-19T00:58:57.281Z,0.10
2022-12-19T01:01:27.657Z,0.20
2022-12-19T01:06:44.678Z,0.70
2022-12-19T01:09:15.022Z,0.80
2022-12-19T01:12:00.771Z,0.90
2022-12-19T01:14:28.935Z,0.90
2022-12-19T01:16:56.996Z,1.00
2022-12-19T01:19:28.002Z,1.00
2022-12-19T01:21:55.999Z,1.00
2022-12-19T01:24:25.399Z,1.00
2022-12-19T01:26:53.558Z,1.10
2022-12-19T01:29:21.552Z,1.30
2022-12-19T01:31:49.685Z,1.40
2022-12-19T01:34:18.039Z,1.40
2022-12-19T01:36:46.126Z,1.50
2022-12-19T01:39:14.295Z,1.70
2022-12-19T01:41:44.116Z,1.90
2022-12-19T01:44:12.400Z,2.00
2022-12-19T01:46:44.559Z,1.90
2022-12-19T01:49:18.110Z,1.90
2022-12-19T01:51:53.684Z,1.90
2022-12-19T01:54:26.618Z,1.80
2022-12-19T01:57:01.082Z,1.80
2022-12-19T01:59:33.350Z,1.80
2022-12-19T02:02:08.484Z,1.70
2022-12-19T02:04:37.510Z,1.80
2022-12-19T02:07:16.188Z,1.90
2022-12-19T02:09:46.851Z,1.90
2022-12-19T02:12:16.668Z,1.90
2022-12-19T02:14:44.998Z,1.90
2022-12-19T02:17:20.995Z,2.00
2022-12-19T02:20:22.815Z,2.10
2022-12-19T02:23:07.976Z,2.10
2022-12-19T02:26:01.356Z,2.00
2022-12-19T02:29:07.131Z,2.00
2022-12-19T02:31:40.838Z,1.90
2022-12-19T02:34:18.299Z,1.80
2022-12-19T02:37:01.866Z,1.70
2022-12-19T02:39:37.047Z,1.60
2022-12-19T02:42:08.810Z,1.50
2022-12-19T02:44:44.101Z,1.30
2022-12-19T02:47:14.673Z,1.30
2022-12-19T02:49:44.215Z,1.20
2022-12-19T02:52:13.441Z,1.10
2022-12-19T02:54:44.924Z,1.00
2022-12-19T02:57:21.517Z,0.90
2022-12-19T03:00:01.160Z,0.80
2022-12-19T03:02:41.494Z,0.70
2022-12-19T03:05:17.557Z,0.60
2022-12-19T03:07:56.037Z,0.40
2022-12-19T03:10:31.324Z,0.30
2022-12-19T03:13:02.933Z,0.30
2022-12-19T03:15:33.111Z,0.20
2022-12-19T03:18:03.527Z,0.20
2022-12-19T03:20:41.458Z,0.20
2022-12-19T03:23:09.572Z,0.20
2022-12-19T03:25:37.802Z,0.30
2022-12-19T03:28:12.973Z,0.30
2022-12-19T03:30:42.992Z,0.20
2022-12-19T03:33:14.998Z,0.20
2022-12-19T03:35:44.898Z,0.20
2022-12-19T03:38:15.080Z,0.20
2022-12-19T03:40:46.228Z,0.10
2022-12-19T03:43:16.581Z,0.10
2022-12-19T03:45:51.003Z,0.10
2022-12-19T03:48:28.539Z,0.00
2022-12-19T03:51:08.652Z,0.00
2022-12-19T03:53:49.209Z,0.00
2022-12-19T03:56:26.538Z,-0.10
2022-12-19T03:59:08.695Z,-0.20
2022-12-19T04:01:37.675Z,-0.20
2022-12-19T04:04:08.704Z,-0.30
2022-12-19T04:06:36.967Z,-0.30
2022-12-19T04:09:05.382Z,-0.30
2022-12-19T04:11:39.757Z,-0.30
2022-12-19T04:14:11.698Z,-0.30
2022-12-19T04:16:44.200Z,-0.30
2022-12-19T04:19:19.281Z,-0.40
2022-12-19T04:21:52.412Z,-0.30
2022-12-19T04:24:25.320Z,-0.30
2022-12-19T04:26:55.439Z,-0.20
2022-12-19T04:29:26.160Z,-0.10
2022-12-19T04:31:54.666Z,-0.10
2022-12-19T04:34:24.111Z,-0.10
2022-12-19T04:36:52.628Z,0.00
2022-12-19T04:39:20.786Z,-0.10
2022-12-19T04:41:48.768Z,-0.10
2022-12-19T04:44:17.006Z,-0.10
2022-12-19T04:46:45.118Z,-0.10
2022-12-19T04:49:13.278Z,-0.10
2022-12-19T04:51:42.769Z,-0.10
2022-12-19T04:54:10.810Z,-0.10
2022-12-19T04:56:38.974Z,0.00
2022-12-19T04:59:07.184Z,0.00
2022-12-19T05:01:35.540Z,0.00
2022-12-19T05:04:04.787Z,0.20
2022-12-19T05:06:33.229Z,0.40
2022-12-19T05:09:02.707Z,0.60
2022-12-19T05:11:30.881Z,0.80
2022-12-19T05:14:00.128Z,0.80
2022-12-19T05:16:28.274Z,0.80
2022-12-19T05:18:56.555Z,0.80
2022-12-19T05:21:24.795Z,0.90
2022-12-19T05:23:52.973Z,1.00
2022-12-19T05:26:22.450Z,1.10
2022-12-19T05:28:50.530Z,1.20
2022-12-19T05:31:21.012Z,1.20
2022-12-19T05:33:50.149Z,1.20
2022-12-19T05:36:20.163Z,1.30
2022-12-19T05:38:48.561Z,1.40
2022-12-19T05:41:18.725Z,1.40
2022-12-19T05:43:52.020Z,1.50
2022-12-19T05:46:20.467Z,1.40
2022-12-19T05:48:49.020Z,1.50
2022-12-19T05:51:17.426Z,1.60
2022-12-19T05:53:45.622Z,1.60
2022-12-19T05:56:16.302Z,1.60
2022-12-19T05:58:45.774Z,1.60
2022-12-19T06:01:17.727Z,1.60
2022-12-19T06:03:46.189Z,1.60
2022-12-19T06:06:16.447Z,1.60
2022-12-19T06:08:45.084Z,1.60
2022-12-19T06:11:14.488Z,1.50
2022-12-19T06:13:43.128Z,1.50
2022-12-19T06:16:13.998Z,1.50
2022-12-19T06:18:45.633Z,1.50
2022-12-19T06:21:15.958Z,1.50
2022-12-19T06:23:45.289Z,1.40
2022-12-19T06:26:19.584Z,1.40
2022-12-19T06:28:49.009Z,1.40
2022-12-19T06:31:17.972Z,1.40
2022-12-19T06:33:47.687Z,1.40
2022-12-19T06:36:19.850Z,1.40
2022-12-19T06:38:48.133Z,1.30
2022-12-19T06:41:34.043Z,1.30
2022-12-19T06:44:03.184Z,1.20
2022-12-19T06:46:31.731Z,1.30
2022-12-19T06:49:02.361Z,1.30
2022-12-19T06:51:30.920Z,1.30
2022-12-19T06:53:59.126Z,1.30
2022-12-19T06:56:28.130Z,1.30
2022-12-19T06:58:56.417Z,1.30
2022-12-19T07:01:35.372Z,1.30
2022-12-19T07:04:05.453Z,1.20
2022-12-19T07:06:33.840Z,1.10
2022-12-19T07:09:02.095Z,1.00
2022-12-19T07:11:30.255Z,0.90
2022-12-19T07:13:58.403Z,0.90
2022-12-19T07:16:28.031Z,0.90
2022-12-19T07:18:56.477Z,1.00
2022-12-19T07:21:26.223Z,0.90
2022-12-19T07:23:55.312Z,1.00
2022-12-19T07:26:24.027Z,1.10
2022-12-19T07:28:52.242Z,1.10
2022-12-19T07:31:20.434Z,1.10
2022-12-19T07:33:48.639Z,1.20
2022-12-19T07:36:16.875Z,1.20
2022-12-19T07:38:46.359Z,1.30
2022-12-19T07:41:14.699Z,1.30
2022-12-19T07:43:42.928Z,1.40
2022-12-19T07:46:11.139Z,1.40
2022-12-19T07:48:39.480Z,1.50
2022-12-19T07:51:07.881Z,1.60
2022-12-19T07:53:36.062Z,1.60
2022-12-19T07:56:05.757Z,1.70
2022-12-19T07:58:34.391Z,1.80
2022-12-19T08:01:02.997Z,1.90
2022-12-19T08:03:31.019Z,1.90
2022-12-19T08:06:01.342Z,1.90
2022-12-19T08:08:30.436Z,2.10
2022-12-19T08:11:06.439Z,2.10
2022-12-19T08:13:42.022Z,2.20
2022-12-19T08:16:14.754Z,2.30
2022-12-19T08:18:43.045Z,2.50
2022-12-19T08:21:11.786Z,2.60
2022-12-19T08:23:40.077Z,2.70
2022-12-19T08:26:10.138Z,2.90
2022-12-19T08:28:39.779Z,3.00
2022-12-19T08:31:09.866Z,3.10
2022-12-19T08:33:38.050Z,3.20
2022-12-19T08:36:08.257Z,3.30
2022-12-19T08:38:37.105Z,3.40
2022-12-19T08:41:05.567Z,3.50
2022-12-19T08:43:34.091Z,3.60
2022-12-19T08:46:03.705Z,3.50
2022-12-19T08:48:32.835Z,3.60
2022-12-19T08:51:03.026Z,3.60
2022-12-19T08:53:34.043Z,3.60
2022-12-19T08:56:04.503Z,3.70
2022-12-19T08:58:32.670Z,3.70
2022-12-19T09:01:05.382Z,3.80
2022-12-19T09:03:42.734Z,3.80
2022-12-19T09:06:21.308Z,3.80
2022-12-19T09:08:49.968Z,3.80
2022-12-19T09:11:20.268Z,3.80
2022-12-19T09:13:50.424Z,3.90
2022-12-19T09:16:20.461Z,4.00
2022-12-19T09:18:51.877Z,4.00
2022-12-19T09:21:21.148Z,4.10
2022-12-19T09:23:50.061Z,4.10
2022-12-19T09:26:18.504Z,4.00
2022-12-19T09:28:48.325Z,4.00
2022-12-19T09:31:18.873Z,4.00
2022-12-19T09:33:47.339Z,4.10
2022-12-19T09:36:19.855Z,4.20
2022-12-19T09:38:49.316Z,4.10
2022-12-19T09:41:41.608Z,4.10
2022-12-19T09:44:20.539Z,4.10
2022-12-19T09:46:51.698Z,4.10
2022-12-19T09:49:22.742Z,4.20
2022-12-19T09:52:00.569Z,4.20
2022-12-19T09:54:36.266Z,4.20
2022-12-19T09:57:10.765Z,4.20
2022-12-19T09:59:49.568Z,4.20
2022-12-19T10:02:35.629Z,4.20
2022-12-19T10:05:17.086Z,4.30
2022-12-19T10:08:09.723Z,4.40
2022-12-19T10:12:39.581Z,4.50
2022-12-19T10:13:54.609Z,4.60
2022-12-19T10:16:31.925Z,4.60
2022-12-19T10:19:04.084Z,4.60
2022-12-19T10:22:08.101Z,4.60
2022-12-19T10:24:59.599Z,4.50
2022-12-19T10:27:59.404Z,4.40
2022-12-19T10:30:32.756Z,4.20
2022-12-19T10:33:19.758Z,4.10
2022-12-19T10:35:55.530Z,4.00
2022-12-19T10:38:32.319Z,3.90
2022-12-19T10:41:14.889Z,3.80
2022-12-19T10:43:52.268Z,3.80
2022-12-19T10:46:26.306Z,3.60
2022-12-19T10:48:55.014Z,3.50
2022-12-19T10:51:26.043Z,3.50
2022-12-19T10:53:57.197Z,3.40
2022-12-19T10:56:36.795Z,3.50
2022-12-19T10:59:16.233Z,3.50
2022-12-19T11:01:45.211Z,3.50
2022-12-19T11:04:27.805Z,3.50
2022-12-19T11:07:08.377Z,3.60
2022-12-19T11:09:40.072Z,3.60
2022-12-19T11:16:50.053Z,3.50
2022-12-19T11:20:45.725Z,3.50
2022-12-19T11:28:25.991Z,3.70
2022-12-19T11:29:19.366Z,3.80
2022-12-19T11:30:34.399Z,3.90
2022-12-19T11:30:43.543Z,3.90
2022-12-19T11:32:41.466Z,4.00
2022-12-19T11:35:19.858Z,4.10
2022-12-19T11:37:55.675Z,4.20
2022-12-19T11:40:34.805Z,4.20
2022-12-19T11:43:43.178Z,4.20
2022-12-19T11:46:04.551Z,4.30
2022-12-19T11:48:40.382Z,4.30
2022-12-19T11:51:15.512Z,4.20
2022-12-19T11:53:52.103Z,4.10
2022-12-19T11:56:24.437Z,4.10
2022-12-19T11:58:56.789Z,4.00
2022-12-19T12:01:41.585Z,4.00
2022-12-19T12:04:30.690Z,3.90
2022-12-19T12:07:00.323Z,3.90
2022-12-19T12:11:09.576Z,3.80
2022-12-19T12:20:55.147Z,3.80
2022-12-19T12:27:47.379Z,3.80
2022-12-19T12:31:01.689Z,3.80
2022-12-19T12:31:21.672Z,3.80
2022-12-19T12:31:42.402Z,3.90
2022-12-19T12:31:43.411Z,3.90
2022-12-19T12:31:43.764Z,3.80
2022-12-19T12:35:55.107Z,3.90
2022-12-19T12:39:33.351Z,3.90
2022-12-19T12:42:14.605Z,3.90
2022-12-19T12:44:46.117Z,4.00
2022-12-19T12:47:19.250Z,4.00
2022-12-19T12:49:55.784Z,4.10
2022-12-19T12:52:30.052Z,4.10
2022-12-19T12:54:58.954Z,4.10
2022-12-19T12:57:36.975Z,4.10
2022-12-19T13:00:24.014Z,4.10
2022-12-19T13:02:57.060Z,4.10
2022-12-19T13:05:40.586Z,4.10
2022-12-19T13:08:35.771Z,4.10
2022-12-19T13:11:06.731Z,4.00
2022-12-19T13:13:58.093Z,4.00
2022-12-19T13:16:53.068Z,4.00
2022-12-19T13:19:28.388Z,4.00
2022-12-19T13:22:41.954Z,3.90
2022-12-19T13:25:47.353Z,4.00
2022-12-19T13:28:37.160Z,3.90
2022-12-19T13:31:22.835Z,3.90
2022-12-19T13:34:17.215Z,4.00
2022-12-19T13:39:50.024Z,4.00
2022-12-19T13:40:10.897Z,4.00
2022-12-19T13:43:11.375Z,4.00
2022-12-19T13:45:42.826Z,4.00
2022-12-19T13:48:16.602Z,3.90
2022-12-19T13:50:49.613Z,3.90
2022-12-19T13:53:19.542Z,3.90
2022-12-19T13:55:50.005Z,3.90
2022-12-19T13:58:29.152Z,3.90
2022-12-19T14:01:01.181Z,3.90
2022-12-19T14:03:37.264Z,4.00
2022-12-19T14:06:17.345Z,4.00
2022-12-19T14:08:48.174Z,4.00
2022-12-19T14:12:29.055Z,4.00
2022-12-19T14:14:58.082Z,4.00
2022-12-19T14:17:37.847Z,4.00
2022-12-19T14:22:02.259Z,4.00
2022-12-19T14:23:06.897Z,4.00
2022-12-19T14:28:18.569Z,4.00
2022-12-19T14:28:42.309Z,4.00
2022-12-19T14:31:15.931Z,4.00
2022-12-19T14:34:04.798Z,4.10
2022-12-19T14:36:39.041Z,4.00
2022-12-19T14:39:25.133Z,4.00
2022-12-19T14:42:49.281Z,4.00
2022-12-19T14:54:03.375Z,4.00
2022-12-19T14:54:16.796Z,3.90
2022-12-19T14:54:20.820Z,3.90
2022-12-19T14:55:43.171Z,3.90
2022-12-19T14:57:29.040Z,3.80
2022-12-19T15:01:08.471Z,3.80
2022-12-19T15:03:21.664Z,3.80
2022-12-19T15:05:50.592Z,3.80
2022-12-19T15:11:00.808Z,3.80
2022-12-19T15:11:55.566Z,3.80
2022-12-19T15:14:54.530Z,3.80
2022-12-19T15:17:23.973Z,3.70
2022-12-19T15:19:54.095Z,3.70
2022-12-19T15:22:22.305Z,3.70
2022-12-19T15:24:50.609Z,3.80
2022-12-19T15:27:19.214Z,3.80
2022-12-19T15:29:47.384Z,3.80
2022-12-19T15:32:16.698Z,3.80
2022-12-19T15:34:51.135Z,3.80
2022-12-19T15:37:21.276Z,3.90
2022-12-19T15:39:49.471Z,3.90
2022-12-19T15:42:21.483Z,4.00
2022-12-19T15:44:50.247Z,4.00
2022-12-19T15:47:20.886Z,4.00
2022-12-19T15:49:48.990Z,4.00
2022-12-19T15:52:18.967Z,3.90
2022-12-19T15:54:50.590Z,3.90
2022-12-19T15:57:27.870Z,3.90
2022-12-19T15:59:58.192Z,3.90
2022-12-19T16:02:42.598Z,3.90
2022-12-19T16:05:17.464Z,4.00
2022-12-19T16:07:46.059Z,4.00
2022-12-19T16:10:16.584Z,4.00
2022-12-19T16:12:48.187Z,3.90
2022-12-19T16:15:26.579Z,3.90
2022-12-19T16:17:55.303Z,3.90
2022-12-19T16:20:25.524Z,3.80
2022-12-19T16:22:54.946Z,3.80
2022-12-19T16:25:29.381Z,3.80
2022-12-19T16:28:01.853Z,3.70
2022-12-19T16:30:32.416Z,3.70
2022-12-19T16:33:02.237Z,3.70
2022-12-19T16:38:20.588Z,3.70
2022-12-19T16:40:51.577Z,3.70
2022-12-19T16:43:28.539Z,3.70
2022-12-19T16:46:00.783Z,3.70
2022-12-19T16:48:31.042Z,3.80
2022-12-19T16:51:00.319Z,3.80
2022-12-19T16:53:29.375Z,3.80
2022-12-19T16:56:00.657Z,3.80
2022-12-19T16:58:30.171Z,3.80
2022-12-19T17:00:58.601Z,3.80
2022-12-19T17:03:30.609Z,3.80
2022-12-19T17:05:58.884Z,3.70
2022-12-19T17:08:27.087Z,3.70
2022-12-19T17:10:55.976Z,3.70
2022-12-19T17:13:26.056Z,3.60
2022-12-19T17:15:57.143Z,3.60
2022-12-19T17:18:29.736Z,3.60
2022-12-19T17:20:58.715Z,3.70
2022-12-19T17:23:29.076Z,3.70
2022-12-19T17:25:58.263Z,3.70
2022-12-19T17:28:28.425Z,3.70
2022-12-19T17:30:59.846Z,3.70
2022-12-19T17:33:34.585Z,3.70
2022-12-19T17:36:03.625Z,3.60
2022-12-19T17:38:31.845Z,3.70
2022-12-19T17:41:00.323Z,3.60
2022-12-19T17:43:29.813Z,3.60
2022-12-19T17:45:58.465Z,3.60
2022-12-19T17:48:28.644Z,3.60
2022-12-19T17:50:57.149Z,3.60
2022-12-19T17:53:25.394Z,3.50
2022-12-19T17:55:54.089Z,3.50
2022-12-19T17:58:22.690Z,3.60
2022-12-19T18:00:53.118Z,3.60
2022-12-19T18:03:23.667Z,3.70
2022-12-19T18:05:54.011Z,3.70
2022-12-19T18:08:28.363Z,3.80
2022-12-19T18:10:58.687Z,3.80
2022-12-19T18:14:03.845Z,3.90
2022-12-19T18:16:34.484Z,4.00
2022-12-19T18:19:02.659Z,3.90
2022-12-19T18:21:31.011Z,3.90
2022-12-19T18:23:59.153Z,3.90
2022-12-19T18:26:27.257Z,3.90
2022-12-19T18:28:55.515Z,3.90
2022-12-19T18:31:26.480Z,4.00
2022-12-19T18:34:07.103Z,4.00
2022-12-19T18:36:40.101Z,4.00
2022-12-19T18:39:19.456Z,4.20
2022-12-19T18:41:47.682Z,4.20
2022-12-19T18:44:15.720Z,4.20
2022-12-19T18:46:44.186Z,4.10
2022-12-19T18:49:16.796Z,4.10
2022-12-19T18:51:46.046Z,4.10
2022-12-19T18:54:15.254Z,4.10
2022-12-19T18:56:43.340Z,4.20
2022-12-19T18:59:11.424Z,4.20
2022-12-19T19:01:42.870Z,4.10
2022-12-19T19:04:13.301Z,4.00
2022-12-19T19:06:50.357Z,3.90
2022-12-19T19:09:21.034Z,3.80
2022-12-19T19:12:22.072Z,3.70
2022-12-19T19:14:50.167Z,3.70
2022-12-19T19:17:27.226Z,3.60
2022-12-19T19:19:56.237Z,3.60
2022-12-19T19:22:26.136Z,3.60
2022-12-19T19:24:54.333Z,3.60
2022-12-19T19:27:22.592Z,3.60
2022-12-19T19:29:50.714Z,3.50
2022-12-19T19:32:19.943Z,3.40
2022-12-19T19:34:48.325Z,3.30
2022-12-19T19:37:16.915Z,3.20
2022-12-19T19:39:47.745Z,3.20
2022-12-19T19:42:16.150Z,3.30
2022-12-19T19:44:45.502Z,3.30
2022-12-19T19:47:14.061Z,3.30
2022-12-19T19:49:42.389Z,3.30
2022-12-19T19:52:11.228Z,3.30
2022-12-19T19:54:39.457Z,3.20
2022-12-19T19:57:09.801Z,3.10
2022-12-19T19:59:37.887Z,3.10
2022-12-19T20:02:08.408Z,3.10
2022-12-19T20:04:37.553Z,3.10
2022-12-19T20:07:06.318Z,3.10
2022-12-19T20:09:34.661Z,3.10
2022-12-19T20:12:02.941Z,3.10
2022-12-19T20:14:32.525Z,3.20
2022-12-19T20:17:00.626Z,3.20
2022-12-19T20:19:28.798Z,3.30
2022-12-19T20:21:57.520Z,3.30
2022-12-19T20:24:25.593Z,3.30
2022-12-19T20:26:53.746Z,3.30
2022-12-19T20:29:21.926Z,3.40
2022-12-19T20:31:51.820Z,3.50
2022-12-19T20:34:20.928Z,3.70
2022-12-19T20:36:49.354Z,3.60
2022-12-19T20:39:21.933Z,3.80
2022-12-19T20:41:50.797Z,3.90
2022-12-19T20:44:24.158Z,3.90
2022-12-19T20:46:54.558Z,3.90
2022-12-19T20:49:24.966Z,3.90
2022-12-19T20:51:53.224Z,3.90
2022-12-19T20:54:21.601Z,4.00
2022-12-19T20:56:49.861Z,4.00
2022-12-19T20:59:18.231Z,4.00
2022-12-19T21:01:46.726Z,4.00
2022-12-19T21:04:16.829Z,4.10
2022-12-19T21:06:45.260Z,4.10
2022-12-19T21:09:13.400Z,4.10
2022-12-19T21:11:41.466Z,4.00
2022-12-19T21:14:11.509Z,4.10
2022-12-19T21:16:39.712Z,4.10
2022-12-19T21:19:07.853Z,4.10
2022-12-19T21:21:37.517Z,4.10
2022-12-19T21:24:06.007Z,4.10
2022-12-19T21:26:34.234Z,4.10
2022-12-19T21:29:02.483Z,4.10
2022-12-19T21:31:31.767Z,4.10
2022-12-19T21:34:02.486Z,4.10
2022-12-19T21:36:31.499Z,4.00
2022-12-19T21:39:03.396Z,4.00
2022-12-19T21:41:32.252Z,3.90
2022-12-19T21:44:01.095Z,3.90
2022-12-19T21:46:30.931Z,3.90
2022-12-19T21:48:59.157Z,3.80
2022-12-19T21:51:29.384Z,3.80
2022-12-19T21:54:07.332Z,3.70
2022-12-19T21:56:37.445Z,3.80
2022-12-19T21:59:07.515Z,3.70
2022-12-19T22:01:36.165Z,3.80
2022-12-19T22:04:07.236Z,3.90
2022-12-19T22:06:38.370Z,3.90
2022-12-19T22:09:10.688Z,4.00
2022-12-19T22:11:39.111Z,3.90
2022-12-19T22:14:07.936Z,3.90
2022-12-19T22:16:36.980Z,4.00
2022-12-19T22:19:06.329Z,4.00
2022-12-19T22:21:34.923Z,3.90
2022-12-19T22:24:04.721Z,3.80
2022-12-19T22:26:35.586Z,3.70
2022-12-19T22:29:08.235Z,3.60
2022-12-19T22:31:37.347Z,3.40
2022-12-19T22:34:07.553Z,3.30
2022-12-19T22:36:37.371Z,3.20
2022-12-19T22:39:07.593Z,3.30
2022-12-19T22:41:38.068Z,3.30
2022-12-19T22:44:06.852Z,3.30
2022-12-19T22:46:36.704Z,3.30
2022-12-19T22:49:07.047Z,3.60
2022-12-19T22:51:36.153Z,3.70
2022-12-19T22:54:05.600Z,3.60
2022-12-19T22:56:36.160Z,3.70
2022-12-19T22:59:06.680Z,3.70
2022-12-19T23:01:37.170Z,3.70
2022-12-19T23:04:06.667Z,3.80
2022-12-19T23:06:37.857Z,3.80
2022-12-19T23:09:07.036Z,3.80
2022-12-19T23:11:38.519Z,3.80
2022-12-19T23:14:08.358Z,3.90
2022-12-19T23:16:36.643Z,3.90
2022-12-19T23:19:05.763Z,3.90
2022-12-19T23:21:33.949Z,4.00
2022-12-19T23:24:02.405Z,3.90
2022-12-19T23:26:32.766Z,3.90
2022-12-19T23:29:04.683Z,3.90
2022-12-19T23:31:34.720Z,4.00
2022-12-19T23:34:03.181Z,4.00
2022-12-19T23:39:19.689Z,4.00
2022-12-19T23:41:47.690Z,4.10
2022-12-19T23:44:17.583Z,4.10
2022-12-19T23:46:45.791Z,4.20
2022-12-19T23:49:14.426Z,4.20
2022-12-19T23:51:42.606Z,4.20
2022-12-19T23:54:11.286Z,4.10
2022-12-19T23:56:39.612Z,4.10
2022-12-19T23:59:07.621Z,4.20
